Current Weather

Al Udeid Ab

Al Udeid Ab, Qatar (OTBH)

Report from: Tuesday, August 16, 2022 5:51 AM UTC
Current time: Tuesday, August 16, 2022 6:34 AM UTC

Nearby weather
Weather history
Weather forecast

Present weatherHaze
Temperature39.0°C (102.2°F)
Heat index41.1°C (105.9°F)
Dew point18.0°C (64.4°F)
Winds 4 kts (2.1 m/s, 4.6 mph) Vrb
Winds variableWinds variable
Visibility5.6 mi. (9 km)
Clouds Few clouds 15,000 ft. (4,572 m)
Altimeter29.51 in.Hg (999 mB)
Relative humidity30 %
Density altitude3,449 ft. (1,051 m)
Flight conditions Visual Meteorological Conditions
Raw dataOTBH 160551Z VRB04KT 9000 HZ FEW150 39/18 A2951
An error has occurred. This application may no longer respond until reloaded. Reload 🗙